• Join FlightAware (Why Join?)
  • Login
  • US Flag 
09:42PM EST


 

Airport Tracker/Info


-or-


 

Live Flight TrackerFlight Track Log ✈ EJA929 ✈ 15-Aug-2013 ✈ KBHM - KLIT

Flight Track Log - Related Links

Times and Time Zones

All times are in EDT time to prevent confusion due to time zone crossing. See the EJA929 flight status page for this flight to view local times or setup timezone preferences in your user account.

Time Position Orientation Groundspeed Altitude Reporting Facility
EDT Latitude Longitude Course Direction KTS MPH feet Rate Location/Type
07:56AM 33.5661 -86.7511 52° Northeast 174 200 1,400  Level Atlanta Center
07:57AM 33.6092 -86.6853 52° Northeast 210 242 5,000 3,000 Climbing Atlanta Center
07:58AM 33.6664 -86.6469 29° Northeast 279 321 7,900 2,460 Climbing Atlanta Center
07:59AM 33.6917 -86.7328 290° West 203 234 10,000 1,980 Climbing Atlanta Center
08:00AM 33.6789 -86.8447 262° West 238 274 11,900 1,920 Climbing Atlanta Center
08:01AM 33.6656 -86.9639 262° West 301 346 13,900 1,860 Climbing Atlanta Center
08:02AM 33.6522 -87.0858 263° West 336 387 15,700 1,740 Climbing Atlanta Center
08:03AM 33.6367 -87.2100 261° West 360 414 17,400 1,500 Climbing Atlanta Center
08:06AM 33.6033 -87.4967 262° West 399 459 20,700 1,500 Climbing Memphis Center
08:07AM 33.5897 -87.6292 263° West 399 459 22,300 1,500 Climbing Memphis Center
08:08AM 33.5717 -87.7619 261° West 404 465 23,800 1,440 Climbing Memphis Center
08:09AM 33.5578 -87.8994 263° West 409 471 25,200 1,500 Climbing Memphis Center
08:10AM 33.5728 -88.0336 278° West 403 464 26,800 1,380 Climbing Memphis Center
08:11AM 33.6025 -88.1700 285° West 409 471 28,000 600 Climbing Memphis Center
08:12AM 33.6339 -88.3039 286° West 414 476 28,000  Level Memphis Center
08:13AM 33.6656 -88.4503 285° West 426 490 28,000  Level Memphis Center
08:14AM 33.6967 -88.5919 285° West 439 505 28,000  Level Memphis Center
08:15AM 33.7300 -88.7386 285° West 444 511 28,000  Level Memphis Center
08:16AM 33.7567 -88.8681 284° West 449 517 28,000  Level Memphis Center
08:17AM 33.7897 -89.0125 285° West 449 517 28,000  Level Memphis Center
08:18AM 33.8203 -89.1494 285° West 436 502 28,000  Level Memphis Center
08:19AM 33.8489 -89.2967 283° West 436 502 28,000  Level Memphis Center
08:20AM 33.8836 -89.4564 285° West 441 507 28,000  Level Memphis Center
08:21AM 33.9117 -89.6039 283° West 451 519 28,000 -60 Level Memphis Center
08:22AM 33.9436 -89.7486 285° West 451 519 27,900 -660 Descending Memphis Center
08:23AM 33.9736 -89.8964 284° West 451 519 26,700 -1,380 Descending Memphis Center
08:24AM 34.0053 -90.0439 285° West 451 519 25,200 -1,380 Descending Memphis Center
08:25AM 34.0347 -90.1917 284° West 451 519 24,000 -600 Descending Memphis Center
08:26AM 34.0642 -90.3372 284° West 451 519 24,000  Level Memphis Center
08:27AM 34.0892 -90.4625 284° West 441 507 24,000  Level Memphis Center
08:28AM 34.1183 -90.6031 284° West 436 502 24,000  Level Memphis Center
08:29AM 34.1472 -90.7436 284° West 429 494 24,000  Level Memphis Center
08:30AM 34.1736 -90.8794 283° West 429 494 24,000 -480 Level Memphis Center
08:31AM 34.2022 -91.0228 284° West 434 499 23,100 -900 Descending Memphis Center
08:32AM 34.2286 -91.1636 283° West 432 497 22,300 -1,560 Descending Memphis Center
08:33AM 34.2647 -91.3525 283° West 468 539 19,800 -2,040 Descending Memphis Center
08:34AM 34.2889 -91.4683 284° West 450 518 18,300 -2,160 Descending Memphis Center
08:35AM 34.3167 -91.6044 284° West 431 496 15,900 -2,700 Descending Memphis Center
08:36AM 34.3575 -91.7158 294° West 389 448 12,900 -2,340 Descending Memphis Center
08:37AM 34.3875 -91.8219 289° West 360 414 11,300 -1,380 Descending Memphis Center
08:38AM 34.4092 -91.9156 286° West 320 368 10,200 -1,200 Descending Memphis Center
08:39AM 34.4436 -91.9992 297° West 290 334 9,000 -1,500 Descending Memphis Center
08:40AM 34.4886 -92.0731 306° West 275 316 7,200 -1,980 Descending Memphis Center
08:41AM 34.5336 -92.1394 309° West 270 311 5,100 -1,980 Descending Memphis Center
08:42AM 34.5742 -92.2111 305° West 265 305 3,300 -1,560 Descending Memphis Center
08:43AM 34.6239 -92.2475 329° Northwest 219 252 2,000 -1,080 Descending Memphis Center
08:43AM 34.6553 -92.2431 North 163 188 1,500 -660 Descending Memphis Center
08:45AM 34.6989 -92.2442 359° North 122 140 800 -360 Descending Memphis Center
08:46AM 34.7447 -92.2528 351° North 148 170 700 -120 Descending Memphis Center
08:50AM 34.7294 -92.2248 121° Southeast  Level Estimated
08:57AM 34.7294 -92.2248 121° Southeast  Level Estimated
08:58AM 34.7294 -92.2248 121° Southeast  Level Estimated
08:59AM 34.7294 -92.2248 121° Southeast  Level Estimated
09:00AM 34.7294 -92.2248 121° Southeast  Level Estimated